sensor_id;sensor_type;location;lat;lon;timestamp;temperature;humidity
75210;DHT22;63796;53.136;14.882;2022-10-17T00:00:56;12.60;99.90
75210;DHT22;63796;53.136;14.882;2022-10-17T00:03:24;12.60;99.90
75210;DHT22;63796;53.136;14.882;2022-10-17T00:05:51;12.60;99.90
75210;DHT22;63796;53.136;14.882;2022-10-17T00:08:18;12.70;99.90
75210;DHT22;63796;53.136;14.882;2022-10-17T00:10:57;12.70;99.90
75210;DHT22;63796;53.136;14.882;2022-10-17T00:13:26;12.70;99.90
75210;DHT22;63796;53.136;14.882;2022-10-17T00:15:53;12.70;99.90
75210;DHT22;63796;53.136;14.882;2022-10-17T00:18:20;12.60;99.90
75210;DHT22;63796;53.136;14.882;2022-10-17T00:20:48;12.70;99.90
75210;DHT22;63796;53.136;14.882;2022-10-17T00:23:14;12.70;99.90
75210;DHT22;63796;53.136;14.882;2022-10-17T00:25:41;12.70;99.90
75210;DHT22;63796;53.136;14.882;2022-10-17T00:28:10;12.70;99.90
75210;DHT22;63796;53.136;14.882;2022-10-17T00:30:38;12.80;99.90
75210;DHT22;63796;53.136;14.882;2022-10-17T00:33:06;12.70;99.90
75210;DHT22;63796;53.136;14.882;2022-10-17T00:35:33;12.80;99.90
75210;DHT22;63796;53.136;14.882;2022-10-17T00:38:00;12.80;99.90
75210;DHT22;63796;53.136;14.882;2022-10-17T00:40:27;12.80;99.90
75210;DHT22;63796;53.136;14.882;2022-10-17T00:42:53;12.90;99.90
75210;DHT22;63796;53.136;14.882;2022-10-17T00:45:23;12.90;99.90
75210;DHT22;63796;53.136;14.882;2022-10-17T00:48:01;12.90;99.90
75210;DHT22;63796;53.136;14.882;2022-10-17T00:50:34;13.00;99.90
75210;DHT22;63796;53.136;14.882;2022-10-17T00:53:04;13.00;99.90
75210;DHT22;63796;53.136;14.882;2022-10-17T00:55:36;13.10;99.90
75210;DHT22;63796;53.136;14.882;2022-10-17T00:58:05;13.10;99.90
75210;DHT22;63796;53.136;14.882;2022-10-17T01:00:32;13.10;99.90
75210;DHT22;63796;53.136;14.882;2022-10-17T01:02:59;13.20;99.90
75210;DHT22;63796;53.136;14.882;2022-10-17T01:05:26;13.20;99.90
75210;DHT22;63796;53.136;14.882;2022-10-17T01:07:53;13.20;99.90
75210;DHT22;63796;53.136;14.882;2022-10-17T01:10:21;13.30;99.90
75210;DHT22;63796;53.136;14.882;2022-10-17T01:13:04;13.30;99.90
75210;DHT22;63796;53.136;14.882;2022-10-17T01:15:51;13.30;99.90
75210;DHT22;63796;53.136;14.882;2022-10-17T01:27:07;13.40;99.90
75210;DHT22;63796;53.136;14.882;2022-10-17T01:33:16;13.30;99.90
75210;DHT22;63796;53.136;14.882;2022-10-17T01:35:52;13.20;99.90
75210;DHT22;63796;53.136;14.882;2022-10-17T01:41:15;13.30;99.90
75210;DHT22;63796;53.136;14.882;2022-10-17T01:43:58;13.30;99.90
75210;DHT22;63796;53.136;14.882;2022-10-17T01:46:35;13.30;99.90
75210;DHT22;63796;53.136;14.882;2022-10-17T01:49:06;13.30;99.90
75210;DHT22;63796;53.136;14.882;2022-10-17T01:51:45;13.40;99.90
75210;DHT22;63796;53.136;14.882;2022-10-17T01:54:20;13.30;99.90
75210;DHT22;63796;53.136;14.882;2022-10-17T01:56:57;13.30;99.90
75210;DHT22;63796;53.136;14.882;2022-10-17T01:59:34;13.30;99.90
75210;DHT22;63796;53.136;14.882;2022-10-17T02:02:01;13.30;99.90
75210;DHT22;63796;53.136;14.882;2022-10-17T02:04:28;13.30;99.90
75210;DHT22;63796;53.136;14.882;2022-10-17T02:06:55;13.30;99.90
75210;DHT22;63796;53.136;14.882;2022-10-17T02:09:25;13.30;99.90
75210;DHT22;63796;53.136;14.882;2022-10-17T02:17:56;13.40;99.90
75210;DHT22;63796;53.136;14.882;2022-10-17T02:20:50;13.40;99.90
75210;DHT22;63796;53.136;14.882;2022-10-17T02:23:30;13.30;99.90
75210;DHT22;63796;53.136;14.882;2022-10-17T02:31:30;13.40;99.90
75210;DHT22;63796;53.136;14.882;2022-10-17T02:34:06;13.40;99.90
75210;DHT22;63796;53.136;14.882;2022-10-17T02:36:42;13.40;99.90
75210;DHT22;63796;53.136;14.882;2022-10-17T02:39:11;13.50;99.90
75210;DHT22;63796;53.136;14.882;2022-10-17T02:41:39;13.40;99.90
75210;DHT22;63796;53.136;14.882;2022-10-17T02:44:07;13.40;99.90
75210;DHT22;63796;53.136;14.882;2022-10-17T02:46:36;13.40;99.90
75210;DHT22;63796;53.136;14.882;2022-10-17T02:49:17;13.40;99.90
75210;DHT22;63796;53.136;14.882;2022-10-17T02:52:02;13.50;99.90
75210;DHT22;63796;53.136;14.882;2022-10-17T02:54:42;13.50;99.90
75210;DHT22;63796;53.136;14.882;2022-10-17T02:57:15;13.50;99.90
75210;DHT22;63796;53.136;14.882;2022-10-17T02:59:44;13.50;99.90
75210;DHT22;63796;53.136;14.882;2022-10-17T03:02:12;13.50;99.90
75210;DHT22;63796;53.136;14.882;2022-10-17T03:04:44;13.50;99.90
75210;DHT22;63796;53.136;14.882;2022-10-17T03:07:12;13.40;99.90
75210;DHT22;63796;53.136;14.882;2022-10-17T03:09:39;13.30;99.90
75210;DHT22;63796;53.136;14.882;2022-10-17T03:12:06;13.20;99.90
75210;DHT22;63796;53.136;14.882;2022-10-17T03:14:33;13.10;99.90
75210;DHT22;63796;53.136;14.882;2022-10-17T03:17:00;13.10;99.90
75210;DHT22;63796;53.136;14.882;2022-10-17T03:19:27;13.10;99.90
75210;DHT22;63796;53.136;14.882;2022-10-17T03:21:54;13.10;99.90
75210;DHT22;63796;53.136;14.882;2022-10-17T03:24:21;13.10;99.90
75210;DHT22;63796;53.136;14.882;2022-10-17T03:26:48;13.00;99.90
75210;DHT22;63796;53.136;14.882;2022-10-17T03:29:15;13.00;99.90
75210;DHT22;63796;53.136;14.882;2022-10-17T03:31:42;13.00;99.90
75210;DHT22;63796;53.136;14.882;2022-10-17T03:34:08;12.90;99.90
75210;DHT22;63796;53.136;14.882;2022-10-17T03:36:35;12.90;99.90
75210;DHT22;63796;53.136;14.882;2022-10-17T03:39:02;12.90;99.90
75210;DHT22;63796;53.136;14.882;2022-10-17T03:41:29;12.80;99.90
75210;DHT22;63796;53.136;14.882;2022-10-17T03:43:56;12.70;99.90
75210;DHT22;63796;53.136;14.882;2022-10-17T03:46:23;12.60;99.90
75210;DHT22;63796;53.136;14.882;2022-10-17T03:48:50;12.60;99.90
75210;DHT22;63796;53.136;14.882;2022-10-17T03:51:17;12.60;99.90
75210;DHT22;63796;53.136;14.882;2022-10-17T03:53:44;12.60;99.90
75210;DHT22;63796;53.136;14.882;2022-10-17T03:56:20;12.60;99.90
75210;DHT22;63796;53.136;14.882;2022-10-17T03:58:45;12.70;99.90
75210;DHT22;63796;53.136;14.882;2022-10-17T04:01:13;12.80;99.90
75210;DHT22;63796;53.136;14.882;2022-10-17T04:03:42;12.90;99.90
75210;DHT22;63796;53.136;14.882;2022-10-17T04:06:11;13.00;99.90
75210;DHT22;63796;53.136;14.882;2022-10-17T04:08:38;13.00;99.90
75210;DHT22;63796;53.136;14.882;2022-10-17T04:11:07;13.00;99.90
75210;DHT22;63796;53.136;14.882;2022-10-17T04:13:34;13.10;99.90
75210;DHT22;63796;53.136;14.882;2022-10-17T04:16:05;13.10;99.90
75210;DHT22;63796;53.136;14.882;2022-10-17T04:18:33;13.00;99.90
75210;DHT22;63796;53.136;14.882;2022-10-17T04:21:01;12.90;99.90
75210;DHT22;63796;53.136;14.882;2022-10-17T04:23:28;12.90;99.90
75210;DHT22;63796;53.136;14.882;2022-10-17T04:26:00;12.90;99.90
75210;DHT22;63796;53.136;14.882;2022-10-17T04:28:29;12.90;99.90
75210;DHT22;63796;53.136;14.882;2022-10-17T04:31:06;12.90;99.90
75210;DHT22;63796;53.136;14.882;2022-10-17T04:33:35;12.90;99.90
75210;DHT22;63796;53.136;14.882;2022-10-17T04:36:05;12.90;99.90
75210;DHT22;63796;53.136;14.882;2022-10-17T04:38:33;12.80;99.90
75210;DHT22;63796;53.136;14.882;2022-10-17T04:41:02;12.80;99.90
75210;DHT22;63796;53.136;14.882;2022-10-17T04:43:35;12.90;99.90
75210;DHT22;63796;53.136;14.882;2022-10-17T04:46:06;12.90;99.90
75210;DHT22;63796;53.136;14.882;2022-10-17T04:48:34;12.90;99.90
75210;DHT22;63796;53.136;14.882;2022-10-17T04:51:03;13.00;99.90
75210;DHT22;63796;53.136;14.882;2022-10-17T04:53:34;13.10;99.90
75210;DHT22;63796;53.136;14.882;2022-10-17T04:56:07;13.10;99.90
75210;DHT22;63796;53.136;14.882;2022-10-17T04:58:42;13.20;99.90
75210;DHT22;63796;53.136;14.882;2022-10-17T05:01:12;13.20;99.90
75210;DHT22;63796;53.136;14.882;2022-10-17T05:03:40;13.20;99.90
75210;DHT22;63796;53.136;14.882;2022-10-17T05:06:11;13.30;99.90
75210;DHT22;63796;53.136;14.882;2022-10-17T05:08:39;13.30;99.90
75210;DHT22;63796;53.136;14.882;2022-10-17T05:13:50;13.40;99.90
75210;DHT22;63796;53.136;14.882;2022-10-17T05:16:18;13.40;99.90
75210;DHT22;63796;53.136;14.882;2022-10-17T05:18:51;13.40;99.90
75210;DHT22;63796;53.136;14.882;2022-10-17T05:21:21;13.40;99.90
75210;DHT22;63796;53.136;14.882;2022-10-17T05:23:49;13.50;99.90
75210;DHT22;63796;53.136;14.882;2022-10-17T05:26:17;13.50;99.90
75210;DHT22;63796;53.136;14.882;2022-10-17T05:28:45;13.50;99.90
75210;DHT22;63796;53.136;14.882;2022-10-17T05:31:12;13.60;99.90
75210;DHT22;63796;53.136;14.882;2022-10-17T05:33:40;13.60;99.90
75210;DHT22;63796;53.136;14.882;2022-10-17T05:36:07;13.60;99.90
75210;DHT22;63796;53.136;14.882;2022-10-17T05:38:34;13.50;99.90
75210;DHT22;63796;53.136;14.882;2022-10-17T05:41:02;13.60;99.90
75210;DHT22;63796;53.136;14.882;2022-10-17T05:43:32;13.70;99.90
75210;DHT22;63796;53.136;14.882;2022-10-17T05:46:04;13.70;99.90
75210;DHT22;63796;53.136;14.882;2022-10-17T05:48:31;13.70;99.90
75210;DHT22;63796;53.136;14.882;2022-10-17T05:51:00;13.70;99.90
75210;DHT22;63796;53.136;14.882;2022-10-17T05:53:33;13.70;99.90
75210;DHT22;63796;53.136;14.882;2022-10-17T05:56:03;13.70;99.90
75210;DHT22;63796;53.136;14.882;2022-10-17T05:58:31;13.70;99.90
75210;DHT22;63796;53.136;14.882;2022-10-17T06:01:01;13.80;99.90
75210;DHT22;63796;53.136;14.882;2022-10-17T06:03:30;13.80;99.90
75210;DHT22;63796;53.136;14.882;2022-10-17T06:06:06;13.80;99.90
75210;DHT22;63796;53.136;14.882;2022-10-17T06:08:36;13.80;99.90
75210;DHT22;63796;53.136;14.882;2022-10-17T06:11:03;13.90;99.90
75210;DHT22;63796;53.136;14.882;2022-10-17T06:13:31;13.90;99.90
75210;DHT22;63796;53.136;14.882;2022-10-17T06:15:58;13.90;99.90
75210;DHT22;63796;53.136;14.882;2022-10-17T06:18:24;14.00;99.90
75210;DHT22;63796;53.136;14.882;2022-10-17T06:20:51;14.00;99.90
75210;DHT22;63796;53.136;14.882;2022-10-17T06:23:18;14.10;99.90
75210;DHT22;63796;53.136;14.882;2022-10-17T06:25:45;14.10;99.90
75210;DHT22;63796;53.136;14.882;2022-10-17T06:28:12;14.20;99.90
75210;DHT22;63796;53.136;14.882;2022-10-17T06:30:40;14.30;99.90
75210;DHT22;63796;53.136;14.882;2022-10-17T06:33:07;14.40;99.90
75210;DHT22;63796;53.136;14.882;2022-10-17T06:35:34;14.40;99.90
75210;DHT22;63796;53.136;14.882;2022-10-17T06:38:02;14.50;99.90
75210;DHT22;63796;53.136;14.882;2022-10-17T06:40:30;14.60;99.90
75210;DHT22;63796;53.136;14.882;2022-10-17T06:42:57;14.70;99.90
75210;DHT22;63796;53.136;14.882;2022-10-17T06:45:23;14.80;99.90
75210;DHT22;63796;53.136;14.882;2022-10-17T06:47:50;14.80;99.90
75210;DHT22;63796;53.136;14.882;2022-10-17T06:50:17;14.80;99.90
75210;DHT22;63796;53.136;14.882;2022-10-17T06:52:44;14.90;99.90
75210;DHT22;63796;53.136;14.882;2022-10-17T06:55:11;14.90;99.90
75210;DHT22;63796;53.136;14.882;2022-10-17T06:57:38;14.90;99.90
75210;DHT22;63796;53.136;14.882;2022-10-17T07:00:05;15.00;99.90
75210;DHT22;63796;53.136;14.882;2022-10-17T07:02:33;15.10;99.90
75210;DHT22;63796;53.136;14.882;2022-10-17T07:05:00;15.10;99.90
75210;DHT22;63796;53.136;14.882;2022-10-17T07:07:31;15.20;99.90
75210;DHT22;63796;53.136;14.882;2022-10-17T07:09:58;15.30;99.90
75210;DHT22;63796;53.136;14.882;2022-10-17T07:12:25;15.30;99.90
75210;DHT22;63796;53.136;14.882;2022-10-17T07:14:52;15.40;99.90
75210;DHT22;63796;53.136;14.882;2022-10-17T07:17:19;15.50;99.90
75210;DHT22;63796;53.136;14.882;2022-10-17T07:19:45;15.50;99.90
75210;DHT22;63796;53.136;14.882;2022-10-17T07:22:12;15.60;99.90
75210;DHT22;63796;53.136;14.882;2022-10-17T07:24:39;15.60;99.90
75210;DHT22;63796;53.136;14.882;2022-10-17T07:27:06;15.70;99.90
75210;DHT22;63796;53.136;14.882;2022-10-17T07:29:33;15.80;99.90
75210;DHT22;63796;53.136;14.882;2022-10-17T07:32:00;15.80;99.90
75210;DHT22;63796;53.136;14.882;2022-10-17T07:34:29;15.80;99.90
75210;DHT22;63796;53.136;14.882;2022-10-17T07:36:56;15.80;99.90
75210;DHT22;63796;53.136;14.882;2022-10-17T07:39:23;15.70;99.90
75210;DHT22;63796;53.136;14.882;2022-10-17T07:41:50;15.70;99.90
75210;DHT22;63796;53.136;14.882;2022-10-17T07:44:17;15.70;99.90
75210;DHT22;63796;53.136;14.882;2022-10-17T07:46:44;15.80;99.90
75210;DHT22;63796;53.136;14.882;2022-10-17T07:49:10;15.90;99.90
75210;DHT22;63796;53.136;14.882;2022-10-17T07:51:37;16.00;99.90
75210;DHT22;63796;53.136;14.882;2022-10-17T07:54:05;16.10;99.90
75210;DHT22;63796;53.136;14.882;2022-10-17T07:56:32;16.40;99.90
75210;DHT22;63796;53.136;14.882;2022-10-17T07:58:58;16.70;99.90
75210;DHT22;63796;53.136;14.882;2022-10-17T08:01:25;16.60;99.90
75210;DHT22;63796;53.136;14.882;2022-10-17T08:03:53;16.50;99.90
75210;DHT22;63796;53.136;14.882;2022-10-17T08:06:20;16.40;99.90
75210;DHT22;63796;53.136;14.882;2022-10-17T08:08:47;16.70;99.90
75210;DHT22;63796;53.136;14.882;2022-10-17T08:11:14;17.00;99.90
75210;DHT22;63796;53.136;14.882;2022-10-17T08:13:42;16.80;99.90
75210;DHT22;63796;53.136;14.882;2022-10-17T08:16:10;16.80;99.90
75210;DHT22;63796;53.136;14.882;2022-10-17T08:18:39;16.90;99.90
75210;DHT22;63796;53.136;14.882;2022-10-17T08:21:10;17.00;99.90
75210;DHT22;63796;53.136;14.882;2022-10-17T08:23:38;17.10;99.90
75210;DHT22;63796;53.136;14.882;2022-10-17T08:26:06;17.10;99.90
75210;DHT22;63796;53.136;14.882;2022-10-17T08:28:36;17.00;99.90
75210;DHT22;63796;53.136;14.882;2022-10-17T08:31:07;17.10;99.90
75210;DHT22;63796;53.136;14.882;2022-10-17T08:33:36;17.30;99.90
75210;DHT22;63796;53.136;14.882;2022-10-17T08:36:04;18.00;99.90
75210;DHT22;63796;53.136;14.882;2022-10-17T08:38:34;18.10;99.90
75210;DHT22;63796;53.136;14.882;2022-10-17T08:41:11;18.00;99.90
75210;DHT22;63796;53.136;14.882;2022-10-17T08:46:37;18.10;99.90
75210;DHT22;63796;53.136;14.882;2022-10-17T08:49:14;18.60;99.90
75210;DHT22;63796;53.136;14.882;2022-10-17T08:51:44;19.60;99.90
75210;DHT22;63796;53.136;14.882;2022-10-17T08:54:16;20.80;99.90
75210;DHT22;63796;53.136;14.882;2022-10-17T08:56:48;21.70;99.90
75210;DHT22;63796;53.136;14.882;2022-10-17T08:59:22;21.60;99.90
75210;DHT22;63796;53.136;14.882;2022-10-17T09:08:11;20.60;99.90
75210;DHT22;63796;53.136;14.882;2022-10-17T09:14:00;20.00;99.90
75210;DHT22;63796;53.136;14.882;2022-10-17T09:16:52;19.80;99.90
75210;DHT22;63796;53.136;14.882;2022-10-17T09:22:19;19.50;99.90
75210;DHT22;63796;53.136;14.882;2022-10-17T09:24:53;19.80;99.90
75210;DHT22;63796;53.136;14.882;2022-10-17T09:27:31;19.70;99.90
75210;DHT22;63796;53.136;14.882;2022-10-17T09:33:20;19.70;99.90
75210;DHT22;63796;53.136;14.882;2022-10-17T09:35:50;19.80;99.90
75210;DHT22;63796;53.136;14.882;2022-10-17T09:38:20;19.80;99.90
75210;DHT22;63796;53.136;14.882;2022-10-17T09:40:58;19.80;99.90
75210;DHT22;63796;53.136;14.882;2022-10-17T09:43:22;19.90;99.90
75210;DHT22;63796;53.136;14.882;2022-10-17T09:46:44;19.90;99.90
75210;DHT22;63796;53.136;14.882;2022-10-17T09:48:53;19.80;99.90
75210;DHT22;63796;53.136;14.882;2022-10-17T09:51:31;19.90;99.90
75210;DHT22;63796;53.136;14.882;2022-10-17T09:54:03;20.00;99.90
75210;DHT22;63796;53.136;14.882;2022-10-17T09:56:55;20.10;99.90
75210;DHT22;63796;53.136;14.882;2022-10-17T09:59:30;20.30;99.90
75210;DHT22;63796;53.136;14.882;2022-10-17T10:02:16;20.40;99.90
75210;DHT22;63796;53.136;14.882;2022-10-17T10:04:53;20.40;99.90
75210;DHT22;63796;53.136;14.882;2022-10-17T10:07:23;20.40;99.90
75210;DHT22;63796;53.136;14.882;2022-10-17T10:09:52;20.60;99.90
75210;DHT22;63796;53.136;14.882;2022-10-17T10:12:21;20.60;99.90
75210;DHT22;63796;53.136;14.882;2022-10-17T10:14:51;20.70;99.90
75210;DHT22;63796;53.136;14.882;2022-10-17T10:23:10;21.10;99.90
75210;DHT22;63796;53.136;14.882;2022-10-17T10:25:57;21.00;99.90
75210;DHT22;63796;53.136;14.882;2022-10-17T10:28:35;21.30;99.90
75210;DHT22;63796;53.136;14.882;2022-10-17T10:31:06;21.40;99.90
75210;DHT22;63796;53.136;14.882;2022-10-17T10:33:35;21.40;99.90
75210;DHT22;63796;53.136;14.882;2022-10-17T10:36:05;21.40;99.90
75210;DHT22;63796;53.136;14.882;2022-10-17T10:38:33;21.60;99.90
75210;DHT22;63796;53.136;14.882;2022-10-17T10:41:03;21.70;99.90
75210;DHT22;63796;53.136;14.882;2022-10-17T10:43:39;21.80;99.90
75210;DHT22;63796;53.136;14.882;2022-10-17T10:46:24;22.10;99.90
75210;DHT22;63796;53.136;14.882;2022-10-17T10:48:55;22.20;99.90
75210;DHT22;63796;53.136;14.882;2022-10-17T10:51:45;22.10;99.90
75210;DHT22;63796;53.136;14.882;2022-10-17T10:54:33;22.20;99.90
75210;DHT22;63796;53.136;14.882;2022-10-17T10:57:04;22.40;99.90
75210;DHT22;63796;53.136;14.882;2022-10-17T11:02:23;23.40;99.90
75210;DHT22;63796;53.136;14.882;2022-10-17T11:07:51;22.60;99.90
75210;DHT22;63796;53.136;14.882;2022-10-17T11:13:22;22.30;99.90
75210;DHT22;63796;53.136;14.882;2022-10-17T11:18:47;22.20;99.90
75210;DHT22;63796;53.136;14.882;2022-10-17T11:24:38;22.40;99.90
75210;DHT22;63796;53.136;14.882;2022-10-17T11:27:08;22.10;99.90
75210;DHT22;63796;53.136;14.882;2022-10-17T11:29:37;22.10;99.90
75210;DHT22;63796;53.136;14.882;2022-10-17T11:35:04;22.00;99.90
75210;DHT22;63796;53.136;14.882;2022-10-17T11:37:35;22.20;99.90
75210;DHT22;63796;53.136;14.882;2022-10-17T11:40:21;22.50;99.90
75210;DHT22;63796;53.136;14.882;2022-10-17T11:43:11;22.50;99.90
75210;DHT22;63796;53.136;14.882;2022-10-17T11:45:43;22.50;99.90
75210;DHT22;63796;53.136;14.882;2022-10-17T11:48:25;22.40;99.90
75210;DHT22;63796;53.136;14.882;2022-10-17T11:51:11;22.70;99.90
75210;DHT22;63796;53.136;14.882;2022-10-17T11:53:45;22.70;99.90
75210;DHT22;63796;53.136;14.882;2022-10-17T11:56:24;22.80;99.90
75210;DHT22;63796;53.136;14.882;2022-10-17T12:01:57;22.70;99.90
75210;DHT22;63796;53.136;14.882;2022-10-17T12:07:28;23.30;99.90
75210;DHT22;63796;53.136;14.882;2022-10-17T12:12:42;23.40;99.90
75210;DHT22;63796;53.136;14.882;2022-10-17T12:17:56;26.40;99.90
75210;DHT22;63796;53.136;14.882;2022-10-17T12:20:33;27.40;99.90
75210;DHT22;63796;53.136;14.882;2022-10-17T12:23:49;27.80;97.90
75210;DHT22;63796;53.136;14.882;2022-10-17T12:25:58;27.70;96.90
75210;DHT22;63796;53.136;14.882;2022-10-17T12:33:51;26.90;98.90
75210;DHT22;63796;53.136;14.882;2022-10-17T12:49:46;25.10;99.90
75210;DHT22;63796;53.136;14.882;2022-10-17T13:00:50;25.40;99.90
75210;DHT22;63796;53.136;14.882;2022-10-17T13:03:29;25.30;99.90
75210;DHT22;63796;53.136;14.882;2022-10-17T13:06:00;25.00;99.90
75210;DHT22;63796;53.136;14.882;2022-10-17T13:08:42;24.70;99.90
75210;DHT22;63796;53.136;14.882;2022-10-17T13:11:08;24.70;99.90
75210;DHT22;63796;53.136;14.882;2022-10-17T13:13:44;24.60;99.90
75210;DHT22;63796;53.136;14.882;2022-10-17T13:16:37;24.20;99.90
75210;DHT22;63796;53.136;14.882;2022-10-17T13:19:15;23.60;99.90
75210;DHT22;63796;53.136;14.882;2022-10-17T13:21:54;23.60;99.90
75210;DHT22;63796;53.136;14.882;2022-10-17T13:24:33;23.40;99.90
75210;DHT22;63796;53.136;14.882;2022-10-17T13:27:19;23.30;99.90
75210;DHT22;63796;53.136;14.882;2022-10-17T13:29:47;23.10;99.90
75210;DHT22;63796;53.136;14.882;2022-10-17T13:32:14;23.20;99.90
75210;DHT22;63796;53.136;14.882;2022-10-17T13:34:41;23.10;99.90
75210;DHT22;63796;53.136;14.882;2022-10-17T13:37:11;23.10;99.90
75210;DHT22;63796;53.136;14.882;2022-10-17T13:39:43;23.00;99.90
75210;DHT22;63796;53.136;14.882;2022-10-17T13:42:21;23.00;99.90
75210;DHT22;63796;53.136;14.882;2022-10-17T13:44:47;22.90;99.90
75210;DHT22;63796;53.136;14.882;2022-10-17T13:47:31;22.80;99.90
75210;DHT22;63796;53.136;14.882;2022-10-17T13:49:58;22.70;99.90
75210;DHT22;63796;53.136;14.882;2022-10-17T13:52:27;22.70;99.90
75210;DHT22;63796;53.136;14.882;2022-10-17T13:55:07;22.50;99.90
75210;DHT22;63796;53.136;14.882;2022-10-17T13:57:36;22.30;99.90
75210;DHT22;63796;53.136;14.882;2022-10-17T14:00:17;22.20;99.90
75210;DHT22;63796;53.136;14.882;2022-10-17T14:02:39;22.10;99.90
75210;DHT22;63796;53.136;14.882;2022-10-17T14:05:12;22.00;99.90
75210;DHT22;63796;53.136;14.882;2022-10-17T14:13:03;21.90;99.90
75210;DHT22;63796;53.136;14.882;2022-10-17T14:15:33;22.00;99.90
75210;DHT22;63796;53.136;14.882;2022-10-17T14:18:03;22.00;99.90
75210;DHT22;63796;53.136;14.882;2022-10-17T14:20:34;22.10;99.90
75210;DHT22;63796;53.136;14.882;2022-10-17T14:23:02;22.10;99.90
75210;DHT22;63796;53.136;14.882;2022-10-17T14:25:34;22.20;99.90
75210;DHT22;63796;53.136;14.882;2022-10-17T14:28:13;22.20;99.90
75210;DHT22;63796;53.136;14.882;2022-10-17T14:30:47;22.30;99.90
75210;DHT22;63796;53.136;14.882;2022-10-17T14:33:27;22.30;99.90
75210;DHT22;63796;53.136;14.882;2022-10-17T14:35:57;22.30;99.90
75210;DHT22;63796;53.136;14.882;2022-10-17T14:38:27;22.20;99.90
75210;DHT22;63796;53.136;14.882;2022-10-17T14:40:58;22.10;99.90
75210;DHT22;63796;53.136;14.882;2022-10-17T14:43:29;22.10;99.90
75210;DHT22;63796;53.136;14.882;2022-10-17T14:45:58;22.00;99.90
75210;DHT22;63796;53.136;14.882;2022-10-17T14:48:27;21.90;99.90
75210;DHT22;63796;53.136;14.882;2022-10-17T14:51:16;21.70;99.90
75210;DHT22;63796;53.136;14.882;2022-10-17T14:54:02;21.70;99.90
75210;DHT22;63796;53.136;14.882;2022-10-17T14:56:34;21.70;99.90
75210;DHT22;63796;53.136;14.882;2022-10-17T14:59:06;21.60;99.90
75210;DHT22;63796;53.136;14.882;2022-10-17T15:01:35;21.60;99.90
75210;DHT22;63796;53.136;14.882;2022-10-17T15:04:02;21.40;99.90
75210;DHT22;63796;53.136;14.882;2022-10-17T15:06:32;21.40;99.90
75210;DHT22;63796;53.136;14.882;2022-10-17T15:09:00;21.40;99.90
75210;DHT22;63796;53.136;14.882;2022-10-17T15:11:28;21.40;99.90
75210;DHT22;63796;53.136;14.882;2022-10-17T15:13:56;21.40;99.90
75210;DHT22;63796;53.136;14.882;2022-10-17T15:16:25;21.40;99.90
75210;DHT22;63796;53.136;14.882;2022-10-17T15:18:54;21.40;99.90
75210;DHT22;63796;53.136;14.882;2022-10-17T15:21:23;21.40;99.90
75210;DHT22;63796;53.136;14.882;2022-10-17T15:23:51;21.40;99.90
75210;DHT22;63796;53.136;14.882;2022-10-17T15:26:21;21.40;99.90
75210;DHT22;63796;53.136;14.882;2022-10-17T15:28:50;21.30;99.90
75210;DHT22;63796;53.136;14.882;2022-10-17T15:31:21;21.20;99.90
75210;DHT22;63796;53.136;14.882;2022-10-17T15:33:50;21.10;99.90
75210;DHT22;63796;53.136;14.882;2022-10-17T15:36:20;21.00;99.90
75210;DHT22;63796;53.136;14.882;2022-10-17T15:38:57;21.00;99.90
75210;DHT22;63796;53.136;14.882;2022-10-17T15:41:28;20.90;99.90
75210;DHT22;63796;53.136;14.882;2022-10-17T15:43:58;20.80;99.90
75210;DHT22;63796;53.136;14.882;2022-10-17T15:46:27;20.80;99.90
75210;DHT22;63796;53.136;14.882;2022-10-17T15:49:03;20.70;99.90
75210;DHT22;63796;53.136;14.882;2022-10-17T15:51:28;20.60;99.90
75210;DHT22;63796;53.136;14.882;2022-10-17T15:53:55;20.60;99.90
75210;DHT22;63796;53.136;14.882;2022-10-17T15:56:25;20.60;99.90
75210;DHT22;63796;53.136;14.882;2022-10-17T15:58:55;20.50;99.90
75210;DHT22;63796;53.136;14.882;2022-10-17T16:01:25;20.50;99.90
75210;DHT22;63796;53.136;14.882;2022-10-17T16:03:54;20.50;99.90
75210;DHT22;63796;53.136;14.882;2022-10-17T16:06:21;20.40;99.90
75210;DHT22;63796;53.136;14.882;2022-10-17T16:08:49;20.40;99.90
75210;DHT22;63796;53.136;14.882;2022-10-17T16:16:49;20.30;99.90
75210;DHT22;63796;53.136;14.882;2022-10-17T16:19:15;20.30;99.90
75210;DHT22;63796;53.136;14.882;2022-10-17T16:22:02;20.20;99.90
75210;DHT22;63796;53.136;14.882;2022-10-17T16:27:52;20.10;99.90
75210;DHT22;63796;53.136;14.882;2022-10-17T16:30:22;20.00;99.90
75210;DHT22;63796;53.136;14.882;2022-10-17T16:32:51;20.00;99.90
75210;DHT22;63796;53.136;14.882;2022-10-17T16:35:26;19.90;99.90
75210;DHT22;63796;53.136;14.882;2022-10-17T16:37:51;19.80;99.90
75210;DHT22;63796;53.136;14.882;2022-10-17T16:40:18;19.70;99.90
75210;DHT22;63796;53.136;14.882;2022-10-17T16:42:47;19.60;99.90
75210;DHT22;63796;53.136;14.882;2022-10-17T16:45:20;19.60;99.90
75210;DHT22;63796;53.136;14.882;2022-10-17T16:47:48;19.50;99.90
75210;DHT22;63796;53.136;14.882;2022-10-17T16:50:15;19.50;99.90
75210;DHT22;63796;53.136;14.882;2022-10-17T16:52:43;19.40;99.90
75210;DHT22;63796;53.136;14.882;2022-10-17T16:55:10;19.40;99.90
75210;DHT22;63796;53.136;14.882;2022-10-17T16:57:37;19.40;99.90
75210;DHT22;63796;53.136;14.882;2022-10-17T17:00:05;19.30;99.90
75210;DHT22;63796;53.136;14.882;2022-10-17T17:02:33;19.30;99.90
75210;DHT22;63796;53.136;14.882;2022-10-17T17:05:00;19.30;99.90
75210;DHT22;63796;53.136;14.882;2022-10-17T17:07:27;19.20;99.90
75210;DHT22;63796;53.136;14.882;2022-10-17T17:09:54;19.20;99.90
75210;DHT22;63796;53.136;14.882;2022-10-17T17:12:22;19.20;99.90
75210;DHT22;63796;53.136;14.882;2022-10-17T17:14:49;19.20;99.90
75210;DHT22;63796;53.136;14.882;2022-10-17T17:17:15;19.30;99.90
75210;DHT22;63796;53.136;14.882;2022-10-17T17:19:44;19.20;99.90
75210;DHT22;63796;53.136;14.882;2022-10-17T17:22:11;19.20;99.90
75210;DHT22;63796;53.136;14.882;2022-10-17T17:24:38;19.30;99.90
75210;DHT22;63796;53.136;14.882;2022-10-17T17:27:05;19.30;99.90
75210;DHT22;63796;53.136;14.882;2022-10-17T17:29:32;19.20;99.90
75210;DHT22;63796;53.136;14.882;2022-10-17T17:31:59;19.20;99.90
75210;DHT22;63796;53.136;14.882;2022-10-17T17:34:26;19.20;99.90
75210;DHT22;63796;53.136;14.882;2022-10-17T17:36:53;19.30;99.90
75210;DHT22;63796;53.136;14.882;2022-10-17T17:39:20;19.20;99.90
75210;DHT22;63796;53.136;14.882;2022-10-17T17:41:47;19.20;99.90